TimeCST,TemperatureF,Dew PointF,Humidity,Sea Level PressureIn,VisibilityMPH,Wind Direction,Wind SpeedMPH,Gust SpeedMPH,PrecipitationIn,Events,Conditions,WindDirDegrees,DateUTC
2:50 AM,50,16,14,29.83,6,SW,2.2,,,,,230,2013-03-05 08:50:00
5:52 AM,45,17,19,29.86,6,Calm,Calm,,,,Overcast,,2013-03-05 11:52:00
6:01 AM,32.0,6.8,35,30.01,7.0,NE,4.6,-,N/A,,Mostly Cloudy,40,2013-03-05 12:01:00
6:42 AM,33.8,6.8,32,30.31,8.0,Calm,Calm,-,N/A,,Mostly Cloudy,0,2013-03-05 12:42:00
7:45 AM,33.8,6.8,32,30.34,12.0,NNW,4.6,-,N/A,,Overcast,340,2013-03-05 13:45:00
8:45 AM,44,18,22,30.17,25,Calm,Calm,,,,Overcast,,2013-03-05 14:45:00
8:46 AM,39.2,8.6,28,30.22,14.0,Calm,Calm,-,N/A,,Overcast,0,2013-03-05 14:46:00
9:43 AM,48.2,12.2,24,30.39,14.0,Calm,Calm,-,N/A,,Overcast,0,2013-03-05 15:43:00
10:40 AM,57.2,10.4,16,30.38,14.0,Calm,Calm,-,N/A,,Mostly Cloudy,0,2013-03-05 16:40:00
11:43 AM,62.6,8.6,12,30.16,14.0,NNE,3.5,-,N/A,,Mostly Cloudy,30,2013-03-05 17:43:00
11:53 AM,66,17,7,30.17,25,Calm,Calm,,,,Mostly Cloudy,,2013-03-05 17:53:00
12:41 PM,66.2,3.2,8,30.34,14.0,ENE,4.6,-,N/A,,Mostly Cloudy,60,2013-03-05 18:41:00
1:43 PM,68.0,8.6,10,30.30,14.0,North,4.6,-,N/A,,Mostly Cloudy,360,2013-03-05 19:43:00
2:42 PM,71.6,12.2,10,30.04,14.0,NNE,13.8,-,N/A,,Mostly Cloudy,30,2013-03-05 20:42:00
2:51 PM,74,16,5,30.01,31,East,4.5,,,,Scattered Clouds,90,2013-03-05 20:51:00
3:41 PM,73.4,8.6,8,30.23,14.0,ESE,6.9,-,N/A,,Mostly Cloudy,110,2013-03-05 21:41:00
4:42 PM,73.4,8.6,8,30.21,14.0,ENE,3.5,-,N/A,,Mostly Cloudy,60,2013-03-05 22:42:00
5:41 PM,73.4,1.4,6,30.20,14.0,SSE,4.6,-,N/A,,Mostly Cloudy,160,2013-03-05 23:41:00
5:50 PM,74,27,9,29.86,25,SE,2.2,,,,Scattered Clouds,140,2013-03-05 23:50:00
6:41 PM,71.6,3.2,7,30.21,14.0,Calm,Calm,-,N/A,,Scattered Clouds,0,2013-03-06 00:41:00
7:40 PM,64.4,5.0,10,30.22,10.0,North,4.6,-,N/A,,Partly Cloudy,10,2013-03-06 01:40:00
8:44 PM,59.0,5.0,12,30.09,8.0,NNE,4.6,-,N/A,,Clear,20,2013-03-06 02:44:00
8:50 PM,63,23,12,29.83,6,Calm,Calm,,,,,,2013-03-06 02:50:00
9:40 PM,55.4,3.2,12,30.25,8.0,Calm,Calm,-,N/A,,Clear,0,2013-03-06 03:40:00
11:50 PM,58,24,16,29.87,6,NNE,2.2,,,,,30,2013-03-06 05:50:00